Time;durP1;ratioP1;P1;durP2;ratioP2;P2;SDS_P1;SDS_P2;PMS_P1;PMS_P2;Temp;Humidity;BMP_temperature;BMP_pressure;BME280_temperature;BME280_humidity;BME280_pressure;Samples;Min_cycle;Max_cycle;Signal;HPM_P1;HPM_P2
2021/11/02 00:01:07;;;;;;;9.20;3.22;;;11.80;91.40;;;;;;4953174;28;20034;-73
2021/11/02 00:03:33;;;;;;;6.80;3.28;;;11.80;91.40;;;;;;4957874;28;20054;-73
2021/11/02 00:05:59;;;;;;;4.90;3.50;;;11.80;91.40;;;;;;4956124;28;20046;-73
2021/11/02 00:08:24;;;;;;;4.65;2.95;;;11.80;91.50;;;;;;4951010;28;20051;-73
2021/11/02 00:10:50;;;;;;;7.70;3.70;;;11.70;91.40;;;;;;4945752;28;20035;-73
2021/11/02 00:13:19;;;;;;;5.57;3.28;;;11.80;91.50;;;;;;4941792;28;20035;-74
2021/11/02 00:15:48;;;;;;;8.00;3.92;;;11.80;91.60;;;;;;4947285;28;20038;-73
2021/11/02 00:18:14;;;;;;;5.85;3.13;;;11.70;91.60;;;;;;4950111;28;20681;-73
2021/11/02 00:20:40;;;;;;;6.32;2.60;;;11.70;91.60;;;;;;4947595;28;20039;-73
2021/11/02 00:23:08;;;;;;;5.82;3.78;;;11.70;91.60;;;;;;4958858;28;20122;-73
2021/11/02 00:25:35;;;;;;;4.72;3.03;;;11.70;91.50;;;;;;4955531;28;20844;-74
2021/11/02 00:28:03;;;;;;;6.25;3.13;;;11.70;91.50;;;;;;4949700;28;20069;-74
2021/11/02 00:30:29;;;;;;;6.32;3.70;;;11.70;91.40;;;;;;4943744;28;20027;-74
2021/11/02 00:32:55;;;;;;;6.90;3.33;;;11.70;91.50;;;;;;4942732;28;20035;-74
2021/11/02 00:35:23;;;;;;;6.32;3.55;;;11.70;91.40;;;;;;4952536;28;20042;-74
2021/11/02 00:37:51;;;;;;;9.00;3.67;;;11.70;91.40;;;;;;4966788;28;20054;-74
2021/11/02 00:40:19;;;;;;;5.75;3.10;;;11.70;91.50;;;;;;4971887;28;20035;-73
2021/11/02 00:42:59;;;;;;;6.63;3.10;;;11.70;91.60;;;;;;4942517;28;20078;-73
2021/11/02 00:45:36;;;;;;;7.45;3.08;;;11.70;91.60;;;;;;4965794;28;20042;-73
2021/11/02 00:48:13;;;;;;;4.40;3.10;;;11.70;91.60;;;;;;4954708;28;20026;-74
2021/11/02 00:50:43;;;;;;;13.38;5.32;;;11.70;91.60;;;;;;4972276;28;20834;-73
2021/11/02 00:53:09;;;;;;;12.23;4.68;;;11.60;91.60;;;;;;4956328;28;20058;-73
2021/11/02 00:55:35;;;;;;;7.93;4.30;;;11.70;91.70;;;;;;4966825;28;20119;-73
2021/11/02 00:58:04;;;;;;;7.47;4.10;;;11.60;91.60;;;;;;4959222;28;20110;-73
2021/11/02 01:00:30;;;;;;;7.57;3.67;;;11.60;91.70;;;;;;4944556;28;20066;-73
2021/11/02 01:02:56;;;;;;;11.68;3.95;;;11.60;91.70;;;;;;4966650;28;20462;-73
2021/11/02 01:05:23;;;;;;;11.27;4.10;;;11.60;91.70;;;;;;4948307;28;20035;-73
2021/11/02 01:07:49;;;;;;;4.93;3.42;;;11.70;91.60;;;;;;4946223;28;20034;-72
2021/11/02 01:10:18;;;;;;;7.10;4.00;;;11.60;91.50;;;;;;4951650;28;20142;-73
2021/11/02 01:12:50;;;;;;;11.98;7.68;;;11.60;91.70;;;;;;4954859;28;20035;-73
2021/11/02 01:15:19;;;;;;;20.65;12.07;;;11.60;91.80;;;;;;4948957;28;20519;-73
2021/11/02 01:17:45;;;;;;;15.60;9.75;;;11.60;91.90;;;;;;4962695;28;20041;-73
2021/11/02 01:20:13;;;;;;;25.17;12.52;;;11.60;91.80;;;;;;4961262;28;20578;-73
2021/11/02 01:22:42;;;;;;;38.13;19.13;;;11.60;91.70;;;;;;4967283;28;20034;-73
2021/11/02 01:25:09;;;;;;;39.75;20.52;;;11.60;91.70;;;;;;4948206;28;20046;-73
2021/11/02 01:27:36;;;;;;;64.65;29.45;;;11.50;91.70;;;;;;4945158;28;20202;-73
2021/11/02 01:30:04;;;;;;;65.80;29.17;;;11.50;91.80;;;;;;4972525;28;20034;-73
2021/11/02 01:32:31;;;;;;;58.95;25.63;;;11.50;91.90;;;;;;4966796;28;20042;-73
2021/11/02 01:35:00;;;;;;;50.38;22.65;;;11.50;91.90;;;;;;4973741;28;20031;-73
2021/11/02 01:37:27;;;;;;;40.47;16.10;;;11.50;91.90;;;;;;4973847;28;20122;-73
2021/11/02 01:39:53;;;;;;;32.10;13.73;;;11.40;91.90;;;;;;4969570;28;20104;-73
2021/11/02 01:42:22;;;;;;;26.75;10.80;;;11.40;91.90;;;;;;4961160;28;20031;-73
2021/11/02 01:44:48;;;;;;;17.40;7.47;;;11.40;92.00;;;;;;4959424;28;20039;-73
2021/11/02 01:47:19;;;;;;;14.25;5.50;;;11.40;92.10;;;;;;4963012;28;20150;-73
2021/11/02 01:49:45;;;;;;;8.80;4.20;;;11.40;92.00;;;;;;4963054;28;20031;-73
2021/11/02 01:52:12;;;;;;;7.55;3.67;;;11.30;92.10;;;;;;4972621;28;20062;-73
2021/11/02 01:54:39;;;;;;;6.32;2.97;;;11.30;92.10;;;;;;4963164;28;20147;-73
2021/11/02 01:57:06;;;;;;;6.20;3.40;;;11.30;92.10;;;;;;4968860;28;20035;-73
2021/11/02 01:59:34;;;;;;;5.38;3.00;;;11.30;92.10;;;;;;4966794;28;20043;-73
2021/11/02 02:02:31;;;;;;;3.42;2.65;;;11.30;92.20;;;;;;4963203;28;20035;-73
2021/11/02 02:05:31;;;;;;;5.78;2.97;;;11.30;92.20;;;;;;4961531;28;20601;-73
2021/11/02 02:08:27;;;;;;;4.25;2.65;;;11.20;92.20;;;;;;4967070;28;20023;-73
2021/11/02 02:11:01;;;;;;;5.18;2.50;;;11.20;92.40;;;;;;4961364;28;20035;-73
2021/11/02 02:13:38;;;;;;;5.75;3.05;;;11.20;92.40;;;;;;4960194;28;20023;-73
2021/11/02 02:16:14;;;;;;;6.25;3.00;;;11.20;92.60;;;;;;4970160;28;20443;-73
2021/11/02 02:18:59;;;;;;;6.75;2.95;;;11.20;92.60;;;;;;4968863;28;20117;-73
2021/11/02 02:21:47;;;;;;;4.70;3.00;;;11.20;92.50;;;;;;4960502;28;20562;-73
2021/11/02 02:24:29;;;;;;;3.70;2.67;;;11.20;92.60;;;;;;4963176;28;20423;-73
2021/11/02 02:27:01;;;;;;;4.97;3.08;;;11.20;92.70;;;;;;4970991;28;20339;-73
2021/11/02 02:29:31;;;;;;;5.97;2.97;;;11.20;92.60;;;;;;4974392;28;20026;-73
2021/11/02 02:32:01;;;;;;;5.72;3.35;;;11.20;92.60;;;;;;4960180;28;20153;-73
2021/11/02 02:34:27;;;;;;;4.20;2.40;;;11.10;92.60;;;;;;4964784;28;20035;-73
2021/11/02 02:36:55;;;;;;;5.03;2.83;;;11.20;92.60;;;;;;4966823;28;20109;-73
2021/11/02 02:39:22;;;;;;;7.28;3.17;;;11.10;92.50;;;;;;4961933;28;20054;-72
2021/11/02 02:42:12;;;;;;;4.35;2.65;;;11.10;92.60;;;;;;4957297;28;20050;-73
2021/11/02 02:44:48;;;;;;;6.82;3.85;;;11.10;92.70;;;;;;4966860;28;20062;-73
2021/11/02 02:47:17;;;;;;;6.20;2.97;;;11.10;92.70;;;;;;4960669;28;20028;-73
2021/11/02 02:49:47;;;;;;;4.70;3.03;;;11.10;92.70;;;;;;4971497;28;20035;-73
2021/11/02 02:52:16;;;;;;;3.58;2.40;;;11.10;92.70;;;;;;4958539;28;20031;-73
2021/11/02 02:54:48;;;;;;;6.63;3.30;;;11.10;92.70;;;;;;4965268;28;20046;-73
2021/11/02 02:57:19;;;;;;;5.22;3.10;;;11.10;92.60;;;;;;4972082;28;20038;-72
2021/11/02 02:59:45;;;;;;;7.07;3.28;;;11.10;92.70;;;;;;4973310;28;20039;-73
2021/11/02 03:02:14;;;;;;;7.40;2.88;;;11.10;92.80;;;;;;4968433;28;20039;-73
2021/11/02 03:04:41;;;;;;;4.97;3.05;;;11.00;92.90;;;;;;4963079;28;20633;-73
2021/11/02 03:07:10;;;;;;;6.40;3.22;;;11.00;93.00;;;;;;4943829;28;20035;-73
2021/11/02 03:09:36;;;;;;;5.45;3.08;;;11.00;92.90;;;;;;4962701;28;20018;-73
2021/11/02 03:12:04;;;;;;;5.20;2.80;;;11.10;92.90;;;;;;4966376;28;20086;-73
2021/11/02 03:49:20;;;;;;;5.80;3.53;;;10.90;93.10;;;;;;4964866;28;20031;-73
2021/11/02 03:57:17;;;;;;;5.32;2.85;;;10.70;93.40;;;;;;4956636;28;20058;-73
2021/11/02 04:00:07;;;;;;;5.40;3.58;;;10.70;93.30;;;;;;4961879;28;20043;-73
2021/11/02 05:08:50;;;;;;;5.75;3.20;;;10.50;93.70;;;;;;4957369;28;20114;-73
2021/11/02 05:57:35;;;;;;;7.55;3.78;;;10.40;93.70;;;;;;4955837;28;20150;-72
2021/11/02 06:00:32;;;;;;;8.00;3.47;;;10.40;93.70;;;;;;4976241;28;20504;-73
2021/11/02 06:23:20;;;;;;;6.85;3.83;;;10.30;94.00;;;;;;4965850;28;20040;-72
2021/11/02 06:27:44;;;;;;;5.88;3.58;;;10.30;94.20;;;;;;4961811;28;20037;-73
2021/11/02 06:29:17;;;;;;;5.68;3.22;;;10.20;94.00;;;;;;4958997;28;20695;-73
2021/11/02 06:31:53;;;;;;;5.72;3.03;;;10.30;93.90;;;;;;4952388;28;20577;-73
2021/11/02 06:47:36;;;;;;;5.53;3.22;;;10.30;93.90;;;;;;4956004;28;20072;-73
2021/11/02 06:55:41;;;;;;;10.43;4.55;;;10.40;93.90;;;;;;4958804;28;20503;-73
2021/11/02 08:46:50;;;;;;;6.80;4.72;;;12.10;90.60;;;;;;4960518;28;20035;-71
2021/11/02 08:49:16;;;;;;;6.90;3.90;;;12.30;90.50;;;;;;4955770;28;20039;-73
2021/11/02 08:51:41;;;;;;;8.55;4.80;;;12.40;90.20;;;;;;4955792;28;20045;-72
2021/11/02 08:54:07;;;;;;;9.55;4.30;;;12.50;89.40;;;;;;4944198;28;20031;-72
2021/11/02 08:56:34;;;;;;;7.03;4.13;;;12.50;89.80;;;;;;4946276;28;20039;-71
2021/11/02 08:59:00;;;;;;;6.88;4.30;;;12.50;88.70;;;;;;4949529;28;20153;-73
2021/11/02 09:01:26;;;;;;;10.80;5.22;;;12.60;88.60;;;;;;4951176;28;20572;-73
2021/11/02 09:04:00;;;;;;;6.72;3.88;;;12.70;88.00;;;;;;4956695;28;20035;-73
2021/11/02 09:06:27;;;;;;;7.95;4.30;;;12.90;87.70;;;;;;4955710;28;20081;-68
2021/11/02 09:08:57;;;;;;;6.03;3.80;;;13.00;87.20;;;;;;4955239;28;20030;-69
2021/11/02 09:11:26;;;;;;;6.03;4.07;;;13.30;86.30;;;;;;4959660;28;20059;-73
2021/11/02 09:13:54;;;;;;;6.43;3.70;;;13.50;84.30;;;;;;4948405;28;20058;-68
2021/11/02 09:16:25;;;;;;;8.95;4.35;;;13.70;82.80;;;;;;4959266;28;20035;-70
2021/11/02 09:18:53;;;;;;;6.28;4.03;;;13.80;81.80;;;;;;4956394;28;20058;-68
2021/11/02 09:21:21;;;;;;;7.22;3.85;;;13.80;81.00;;;;;;4958016;28;20049;-71
2021/11/02 09:23:48;;;;;;;6.80;4.18;;;14.00;81.10;;;;;;4951914;28;20050;-71
2021/11/02 09:26:16;;;;;;;9.63;4.22;;;14.40;80.60;;;;;;4955576;28;20498;-71
2021/11/02 09:28:43;;;;;;;6.25;4.63;;;14.50;78.20;;;;;;4955198;28;20031;-71
2021/11/02 09:31:13;;;;;;;8.13;5.20;;;14.70;78.50;;;;;;4955301;28;20063;-72
2021/11/02 09:33:39;;;;;;;5.57;3.70;;;14.90;76.90;;;;;;4957760;28;20030;-72
2021/11/02 09:36:07;;;;;;;8.60;4.55;;;14.90;76.20;;;;;;4960528;28;20877;-71
2021/11/02 09:38:47;;;;;;;7.75;3.72;;;15.10;76.10;;;;;;4953106;28;20230;-71
2021/11/02 09:41:33;;;;;;;9.82;4.53;;;15.00;75.00;;;;;;4959745;28;20804;-69
2021/11/02 09:44:28;;;;;;;7.15;4.40;;;15.00;74.30;;;;;;4956877;28;20043;-70
2021/11/02 09:46:59;;;;;;;12.18;4.70;;;15.00;75.40;;;;;;4957412;28;20031;-69
2021/11/02 09:49:52;;;;;;;7.57;4.50;;;14.60;75.70;;;;;;4974430;28;20191;-69
2021/11/02 09:52:38;;;;;;;12.70;4.60;;;14.50;77.90;;;;;;4954349;28;20039;-67
2021/11/02 09:55:10;;;;;;;9.50;5.03;;;14.50;77.80;;;;;;4952978;28;20038;-73
2021/11/02 09:58:00;;;;;;;8.35;4.35;;;14.60;77.90;;;;;;4958978;28;20678;-71
2021/11/02 10:00:40;;;;;;;5.93;3.40;;;14.80;75.80;;;;;;4956612;28;20109;-72
2021/11/02 10:03:28;;;;;;;8.32;4.80;;;14.90;76.90;;;;;;4955757;28;20074;-70
2021/11/02 10:06:05;;;;;;;5.82;3.90;;;14.80;75.90;;;;;;4972207;28;20041;-70
2021/11/02 10:08:47;;;;;;;6.72;3.88;;;14.60;76.30;;;;;;4944136;28;20422;-70
2021/11/02 10:11:44;;;;;;;9.70;4.35;;;14.40;76.70;;;;;;4970721;28;20654;-65
2021/11/02 10:14:26;;;;;;;7.90;3.80;;;14.40;77.50;;;;;;4967775;28;20039;-65
2021/11/02 10:17:11;;;;;;;8.38;3.80;;;14.50;77.60;;;;;;4976242;28;20034;-64
2021/11/02 10:19:53;;;;;;;10.23;4.18;;;14.60;77.50;;;;;;4950142;28;20373;-64
2021/11/02 10:22:38;;;;;;;9.00;3.95;;;14.70;76.10;;;;;;4954402;28;20043;-65
2021/11/02 10:25:06;;;;;;;8.38;4.35;;;14.60;76.90;;;;;;4946192;28;20058;-65
2021/11/02 10:27:50;;;;;;;10.65;4.55;;;14.50;76.50;;;;;;4951267;28;20033;-63
2021/11/02 10:30:33;;;;;;;9.15;4.60;;;14.60;76.90;;;;;;4956843;28;20042;-65
2021/11/02 10:33:17;;;;;;;6.53;4.60;;;14.50;77.00;;;;;;4954446;28;20031;-66
2021/11/02 10:36:01;;;;;;;9.23;5.80;;;14.70;76.90;;;;;;4960167;28;20077;-65
2021/11/02 10:38:55;;;;;;;11.77;4.68;;;14.90;76.10;;;;;;4956205;28;20118;-66
2021/11/02 10:41:33;;;;;;;10.20;4.75;;;15.20;74.40;;;;;;4956622;28;20121;-66
2021/11/02 10:44:27;;;;;;;11.13;4.05;;;15.30;73.50;;;;;;4945416;28;20040;-66
2021/11/02 10:47:16;;;;;;;8.88;4.88;;;15.40;73.50;;;;;;4955184;28;20035;-66
2021/11/02 10:50:00;;;;;;;13.27;6.70;;;15.50;73.00;;;;;;4953178;28;20043;-72
2021/11/02 10:52:28;;;;;;;12.35;6.28;;;15.50;72.30;;;;;;4973210;28;20069;-69
2021/11/02 10:55:23;;;;;;;9.82;5.85;;;15.50;71.50;;;;;;4958028;28;20109;-70
2021/11/02 10:58:18;;;;;;;25.33;15.27;;;15.30;71.10;;;;;;4951219;28;20035;-70
2021/11/02 11:00:48;;;;;;;18.83;10.75;;;15.50;72.20;;;;;;4956765;28;20093;-72
2021/11/02 11:03:16;;;;;;;20.50;11.93;;;15.50;72.10;;;;;;4959953;28;20039;-73
2021/11/02 11:05:47;;;;;;;9.32;3.90;;;15.60;72.00;;;;;;4959217;28;20043;-71
2021/11/02 11:08:16;;;;;;;10.20;6.28;;;15.60;70.80;;;;;;4955105;28;20499;-70
2021/11/02 11:10:43;;;;;;;7.97;5.70;;;15.50;70.70;;;;;;4959384;28;20045;-68
2021/11/02 11:13:11;;;;;;;12.02;8.15;;;15.40;71.20;;;;;;4954653;28;20047;-67
2021/11/02 11:15:40;;;;;;;14.40;5.60;;;15.40;71.60;;;;;;4949862;28;20173;-69
2021/11/02 11:18:10;;;;;;;8.82;4.65;;;15.20;71.70;;;;;;4954860;28;20110;-67
2021/11/02 11:20:40;;;;;;;8.10;4.10;;;15.10;71.60;;;;;;4957960;28;20027;-68
2021/11/02 11:23:10;;;;;;;6.68;3.72;;;14.90;72.30;;;;;;4948798;28;20035;-66
2021/11/02 11:25:50;;;;;;;4.85;4.03;;;14.70;72.60;;;;;;4952596;28;20031;-67
2021/11/02 11:28:18;;;;;;;7.38;4.20;;;14.60;73.40;;;;;;4944725;28;20110;-67
2021/11/02 11:30:44;;;;;;;9.48;4.53;;;14.50;74.20;;;;;;4961036;28;20090;-75
2021/11/02 11:33:14;;;;;;;9.95;4.95;;;14.60;74.30;;;;;;4955613;28;20034;-67
2021/11/02 11:35:41;;;;;;;7.82;4.30;;;14.60;73.80;;;;;;4953452;28;20035;-67
2021/11/02 11:38:10;;;;;;;10.80;7.30;;;14.80;73.60;;;;;;4958424;28;20129;-67
2021/11/02 11:40:38;;;;;;;18.77;10.88;;;15.10;73.80;;;;;;4960555;28;20027;-69
2021/11/02 11:43:07;;;;;;;18.63;10.68;;;15.20;72.00;;;;;;4956590;28;20042;-69
2021/11/02 11:45:36;;;;;;;23.02;14.52;;;15.40;72.10;;;;;;4954539;28;20106;-68
2021/11/02 11:48:21;;;;;;;18.73;10.57;;;15.50;71.80;;;;;;4956217;28;20070;-74
2021/11/02 11:50:48;;;;;;;10.32;4.88;;;15.60;71.00;;;;;;4957059;28;20035;-71
2021/11/02 11:53:19;;;;;;;9.38;4.72;;;15.50;70.40;;;;;;4952952;28;20129;-72
2021/11/02 11:56:04;;;;;;;10.50;4.75;;;15.50;70.00;;;;;;4958973;28;20034;-74
2021/11/02 11:58:31;;;;;;;9.55;4.88;;;15.40;70.80;;;;;;4949890;28;20043;-75
2021/11/02 12:01:23;;;;;;;5.25;3.53;;;15.10;70.80;;;;;;4955404;28;20106;-71
2021/11/02 12:04:08;;;;;;;8.15;4.00;;;15.00;72.80;;;;;;4957017;28;20159;-74
2021/11/02 12:06:47;;;;;;;8.57;4.18;;;15.00;72.10;;;;;;4960608;28;20042;-76
2021/11/02 12:09:20;;;;;;;11.57;3.83;;;15.10;71.40;;;;;;4958734;28;20042;-72
2021/11/02 12:11:47;;;;;;;9.35;3.58;;;15.20;71.40;;;;;;4953631;28;20035;-75
2021/11/02 12:14:21;;;;;;;6.05;2.83;;;15.00;71.50;;;;;;4948549;28;20046;-67
2021/11/02 12:16:48;;;;;;;6.90;3.60;;;15.00;71.60;;;;;;4974780;28;20415;-73
2021/11/02 12:19:19;;;;;;;7.88;4.07;;;15.00;71.70;;;;;;4973467;28;20358;-73
2021/11/02 12:22:00;;;;;;;10.43;5.90;;;15.10;71.50;;;;;;4956393;28;20035;-68
2021/11/02 12:24:36;;;;;;;14.88;9.18;;;15.10;71.70;;;;;;4944021;28;20105;-74
2021/11/02 12:27:21;;;;;;;8.30;5.45;;;15.10;71.70;;;;;;4955723;28;20090;-73
2021/11/02 12:29:49;;;;;;;8.40;3.22;;;15.30;70.70;;;;;;4959241;28;20038;-73
2021/11/02 12:32:17;;;;;;;4.78;2.75;;;15.40;70.50;;;;;;4957053;28;20366;-74
2021/11/02 12:34:55;;;;;;;7.53;5.25;;;15.40;70.00;;;;;;4956303;28;20034;-74
2021/11/02 12:37:24;;;;;;;8.70;3.10;;;15.30;71.30;;;;;;4960304;28;20381;-74
2021/11/02 12:39:50;;;;;;;6.18;2.70;;;15.30;71.20;;;;;;4956021;28;20171;-74
2021/11/02 12:42:21;;;;;;;24.02;12.35;;;15.40;70.80;;;;;;4957875;28;20089;-74
2021/11/02 12:44:49;;;;;;;16.23;5.88;;;15.40;70.60;;;;;;4958574;28;20030;-74
2021/11/02 12:47:20;;;;;;;6.78;4.03;;;15.50;70.60;;;;;;4955258;28;20662;-75
2021/11/02 12:49:48;;;;;;;13.50;6.95;;;15.70;70.30;;;;;;4950876;28;20026;-74
2021/11/02 12:52:18;;;;;;;15.68;7.50;;;15.70;68.80;;;;;;4958515;28;20039;-73
2021/11/02 12:54:58;;;;;;;20.13;8.93;;;15.70;68.90;;;;;;4953805;28;20145;-76
2021/11/02 12:57:38;;;;;;;12.52;6.20;;;15.70;69.60;;;;;;4950497;28;20074;-75
2021/11/02 13:00:08;;;;;;;10.95;4.43;;;15.70;69.80;;;;;;4956751;28;20038;-74
2021/11/02 13:02:36;;;;;;;4.97;2.97;;;15.70;69.90;;;;;;4958300;28;20046;-75
2021/11/02 13:05:14;;;;;;;8.40;3.80;;;15.70;70.10;;;;;;4955088;28;20035;-80
2021/11/02 13:07:42;;;;;;;6.32;2.90;;;15.60;70.40;;;;;;4947601;28;20759;-79
2021/11/02 13:10:18;;;;;;;8.27;2.88;;;15.50;70.20;;;;;;4958470;28;20629;-79
2021/11/02 13:12:49;;;;;;;10.77;5.45;;;15.50;69.70;;;;;;4955475;28;20054;-79
2021/11/02 13:15:16;;;;;;;10.18;4.47;;;15.40;69.70;;;;;;4956480;28;20750;-79
2021/11/02 13:17:47;;;;;;;14.82;7.03;;;15.40;71.00;;;;;;4950802;28;20035;-79
2021/11/02 13:20:34;;;;;;;8.35;4.45;;;15.50;69.50;;;;;;4964049;28;20039;-77
2021/11/02 13:23:02;;;;;;;5.05;3.20;;;15.20;69.50;;;;;;4959852;28;20038;-78
2021/11/02 13:25:36;;;;;;;7.88;2.92;;;15.00;70.90;;;;;;4962797;28;20559;-78
2021/11/02 13:28:02;;;;;;;6.30;3.58;;;14.90;71.40;;;;;;4962179;28;20046;-76
2021/11/02 13:30:46;;;;;;;21.48;9.77;;;14.80;71.70;;;;;;4955703;28;20043;-77
2021/11/02 13:33:19;;;;;;;16.23;8.27;;;14.80;71.50;;;;;;4952703;28;20082;-80
2021/11/02 13:35:45;;;;;;;9.02;5.85;;;14.70;71.40;;;;;;4959541;28;20039;-77
2021/11/02 13:38:35;;;;;;;10.20;4.00;;;14.70;71.60;;;;;;4958534;28;20647;-78
2021/11/02 13:41:16;;;;;;;7.15;2.85;;;14.70;71.00;;;;;;4958176;28;20475;-77
2021/11/02 13:43:50;;;;;;;9.20;5.07;;;14.60;71.70;;;;;;4956544;28;20039;-78
2021/11/02 13:46:29;;;;;;;7.25;4.00;;;14.60;72.00;;;;;;4956946;28;20065;-77
2021/11/02 13:48:55;;;;;;;14.90;6.57;;;14.60;72.10;;;;;;4948716;28;20063;-77
2021/11/02 13:51:23;;;;;;;11.25;6.18;;;14.60;72.50;;;;;;4952395;28;20089;-80
2021/11/02 13:53:50;;;;;;;8.60;4.57;;;14.50;72.10;;;;;;4958261;28;20037;-80
2021/11/02 13:56:18;;;;;;;7.15;3.83;;;14.30;73.80;;;;;;4954021;28;20031;-78
2021/11/02 13:58:44;;;;;;;6.95;4.05;;;14.20;74.60;;;;;;4962932;28;20418;-77
2021/11/02 14:01:24;;;;;;;4.45;3.28;;;14.10;75.30;;;;;;4955251;28;20042;-80
2021/11/02 14:04:05;;;;;;;4.32;3.00;;;14.10;75.70;;;;;;4961442;28;20146;-77
2021/11/02 14:06:34;;;;;;;7.45;3.72;;;14.10;75.80;;;;;;4963541;28;20834;-77
2021/11/02 14:09:01;;;;;;;5.97;3.22;;;14.10;74.50;;;;;;4946179;28;20046;-76
2021/11/02 14:11:35;;;;;;;5.15;3.88;;;14.10;75.00;;;;;;4951378;28;20118;-77
2021/11/02 14:14:02;;;;;;;13.18;6.72;;;14.10;75.50;;;;;;4954750;28;20407;-78
2021/11/02 14:16:37;;;;;;;8.70;4.60;;;14.10;74.50;;;;;;4970385;28;20484;-77
2021/11/02 14:19:04;;;;;;;8.18;3.90;;;14.00;75.20;;;;;;4966149;28;20102;-77
2021/11/02 14:21:51;;;;;;;12.48;5.32;;;13.90;76.00;;;;;;4954122;28;20073;-77
2021/11/02 14:24:33;;;;;;;;;;;13.90;75.10;;;;;;4967004;28;20031;-77
2021/11/02 14:27:00;;;;;;;7.13;4.00;;;13.80;75.80;;;;;;4957928;28;19920;-77
2021/11/02 14:29:55;;;;;;;8.75;4.13;;;13.70;76.30;;;;;;4944480;29;20050;-78
2021/11/02 14:32:36;;;;;;;6.40;3.47;;;13.70;77.50;;;;;;4960689;28;20113;-78
2021/11/02 14:35:09;;;;;;;7.05;3.20;;;13.60;78.00;;;;;;4954221;28;20035;-77
2021/11/02 14:37:52;;;;;;;4.82;2.97;;;13.50;78.30;;;;;;4958229;28;20036;-72
2021/11/02 14:40:48;;;;;;;4.72;3.15;;;13.40;78.50;;;;;;4972140;28;20034;-73
2021/11/02 14:43:14;;;;;;;6.50;2.90;;;13.20;78.80;;;;;;4955301;28;20054;-73
2021/11/02 14:45:51;;;;;;;5.50;2.55;;;13.10;79.30;;;;;;4963519;28;20031;-76
2021/11/02 14:48:29;;;;;;;7.97;3.55;;;13.00;80.00;;;;;;4962077;28;20033;-76
2021/11/02 14:51:00;;;;;;;6.35;3.60;;;12.80;80.50;;;;;;4958262;28;20063;-83
2021/11/02 14:53:29;;;;;;;8.27;4.10;;;12.70;81.10;;;;;;4963038;28;20657;-75
2021/11/02 14:56:02;;;;;;;6.28;3.42;;;12.60;81.70;;;;;;4963674;28;20464;-77
2021/11/02 14:58:42;;;;;;;9.75;3.63;;;12.40;82.10;;;;;;4974407;28;20995;-74
2021/11/02 15:01:46;;;;;;;5.88;3.55;;;12.30;82.40;;;;;;4961073;28;20343;-74
2021/11/02 15:04:13;;;;;;;5.82;2.67;;;12.20;82.80;;;;;;4955789;28;20503;-74
2021/11/02 15:06:46;;;;;;;5.30;3.25;;;12.10;83.60;;;;;;4962239;28;20039;-74
2021/11/02 15:09:14;;;;;;;5.68;3.38;;;12.00;83.80;;;;;;4970096;28;20085;-74
2021/11/02 15:11:41;;;;;;;7.70;3.13;;;11.90;84.20;;;;;;4955963;28;20039;-74
2021/11/02 15:14:12;;;;;;;9.10;4.00;;;11.90;84.60;;;;;;4962174;28;20499;-74
2021/11/02 15:16:45;;;;;;;6.65;3.25;;;12.00;84.80;;;;;;4961657;28;20043;-74
2021/11/02 15:19:12;;;;;;;6.15;3.63;;;12.00;84.80;;;;;;4962616;28;20488;-74
2021/11/02 15:21:40;;;;;;;6.35;3.85;;;12.10;84.80;;;;;;4961172;28;20042;-74
2021/11/02 15:24:17;;;;;;;5.68;2.95;;;12.10;84.90;;;;;;4956315;28;20038;-74
2021/11/02 15:26:54;;;;;;;5.85;3.22;;;12.10;84.70;;;;;;4967100;28;20510;-74
2021/11/02 15:29:22;;;;;;;3.72;3.28;;;12.10;84.90;;;;;;4948848;28;20042;-74
2021/11/02 15:32:02;;;;;;;7.13;3.42;;;12.00;85.00;;;;;;4970599;28;20487;-74
2021/11/02 15:34:44;;;;;;;4.72;3.30;;;12.00;85.20;;;;;;4954691;28;20031;-74
2021/11/02 15:37:21;;;;;;;5.63;3.25;;;12.00;84.80;;;;;;4958823;28;20039;-74
2021/11/02 15:39:49;;;;;;;5.20;3.30;;;11.90;85.00;;;;;;4961060;28;20039;-73
2021/11/02 15:42:24;;;;;;;7.63;3.22;;;11.80;85.30;;;;;;4957218;28;20035;-74
2021/11/02 15:44:55;;;;;;;10.50;3.65;;;11.70;85.40;;;;;;4955283;28;20133;-74
2021/11/02 15:47:26;;;;;;;7.78;3.90;;;11.60;85.60;;;;;;4967969;28;20038;-74
2021/11/02 15:50:10;;;;;;;16.73;7.57;;;11.60;86.20;;;;;;4953391;28;20046;-74
2021/11/02 15:52:38;;;;;;;37.33;15.18;;;11.50;86.60;;;;;;4952079;28;20647;-74
2021/11/02 15:55:09;;;;;;;32.13;14.45;;;11.40;86.90;;;;;;4956161;28;20039;-74
2021/11/02 15:57:37;;;;;;;18.58;8.38;;;11.30;87.30;;;;;;4955611;28;20177;-74
2021/11/02 16:00:05;;;;;;;23.27;9.05;;;11.20;87.50;;;;;;4961398;28;20113;-74
2021/11/02 16:02:39;;;;;;;12.35;5.15;;;11.10;87.90;;;;;;4961421;28;20147;-74
2021/11/02 16:05:07;;;;;;;6.75;3.40;;;11.10;88.50;;;;;;4947652;28;20531;-74
2021/11/02 16:07:34;;;;;;;6.80;3.13;;;10.90;88.90;;;;;;4952393;28;20035;-74
2021/11/02 16:10:00;;;;;;;5.88;2.75;;;10.90;89.10;;;;;;4950448;28;20069;-74
2021/11/02 16:12:35;;;;;;;3.88;2.83;;;10.90;89.30;;;;;;4952278;28;20054;-74
2021/11/02 16:15:11;;;;;;;8.55;3.08;;;10.80;89.40;;;;;;4954785;28;20548;-74
2021/11/02 16:17:54;;;;;;;6.32;2.83;;;10.80;89.60;;;;;;4954754;28;20531;-74
2021/11/02 16:20:29;;;;;;;13.38;4.20;;;10.70;90.00;;;;;;4957513;28;20081;-74
2021/11/02 16:23:04;;;;;;;5.88;4.15;;;10.70;90.00;;;;;;4957742;28;20129;-74
2021/11/02 16:25:32;;;;;;;9.38;4.20;;;10.70;90.00;;;;;;4958923;28;20038;-73
2021/11/02 16:28:02;;;;;;;7.20;3.97;;;10.80;90.00;;;;;;4956947;28;20065;-73
2021/11/02 16:31:05;;;;;;;6.30;4.05;;;10.80;90.10;;;;;;4957176;28;20027;-79
2021/11/02 16:33:40;;;;;;;7.72;3.45;;;10.80;90.30;;;;;;4945652;28;20294;-78
2021/11/02 16:36:15;;;;;;;10.48;5.32;;;10.90;90.30;;;;;;4952416;28;20133;-79
2021/11/02 16:38:41;;;;;;;19.48;8.57;;;10.90;90.10;;;;;;4960644;28;20510;-76
2021/11/02 16:41:26;;;;;;;19.52;9.20;;;10.90;90.20;;;;;;4960681;28;20031;-73
2021/11/02 16:44:09;;;;;;;20.30;9.20;;;11.00;90.00;;;;;;4954581;28;20518;-75
2021/11/02 16:46:36;;;;;;;16.02;6.68;;;11.00;90.00;;;;;;4955296;28;20669;-74
2021/11/02 16:49:23;;;;;;;13.27;5.88;;;11.00;90.00;;;;;;4947590;28;20043;-75
2021/11/02 16:51:52;;;;;;;13.95;7.00;;;11.00;90.10;;;;;;4946190;28;20039;-74
2021/11/02 16:54:33;;;;;;;18.33;9.68;;;11.10;90.10;;;;;;4948638;28;20047;-74
2021/11/02 16:57:05;;;;;;;15.88;7.20;;;11.00;90.00;;;;;;4961283;28;20484;-74
2021/11/02 16:59:40;;;;;;;22.30;7.00;;;11.10;90.00;;;;;;4959793;28;20056;-74
2021/11/02 17:02:21;;;;;;;11.73;5.15;;;11.10;90.00;;;;;;4947931;28;20027;-77
2021/11/02 17:05:22;;;;;;;9.18;3.97;;;11.10;90.20;;;;;;4948714;28;20067;-73
2021/11/02 17:08:04;;;;;;;7.22;3.75;;;11.10;90.20;;;;;;4957378;28;20038;-74
2021/11/02 17:10:36;;;;;;;5.82;3.97;;;11.20;90.10;;;;;;4955265;28;20039;-73
2021/11/02 17:13:07;;;;;;;5.35;3.45;;;11.20;90.10;;;;;;4948687;28;20034;-75
2021/11/02 17:15:37;;;;;;;7.47;3.30;;;11.20;90.10;;;;;;4953762;28;20026;-76
2021/11/02 17:18:06;;;;;;;4.22;3.47;;;11.20;90.00;;;;;;4939816;28;20035;-73
2021/11/02 17:20:33;;;;;;;7.43;3.60;;;11.20;89.80;;;;;;4960371;28;20043;-74
2021/11/02 17:22:59;;;;;;;6.10;2.95;;;11.20;89.90;;;;;;4949673;28;20031;-72
2021/11/02 17:25:26;;;;;;;11.18;3.55;;;11.30;89.80;;;;;;4946604;28;20474;-73
2021/11/02 17:27:53;;;;;;;5.60;3.33;;;11.20;89.70;;;;;;4950067;28;20050;-74
2021/11/02 17:30:26;;;;;;;5.53;3.47;;;11.20;89.70;;;;;;4964853;28;20148;-75
2021/11/02 17:32:53;;;;;;;7.38;4.00;;;11.20;89.60;;;;;;4946082;28;20150;-74
2021/11/02 17:35:19;;;;;;;8.10;4.07;;;11.20;89.70;;;;;;4954612;28;20034;-76
2021/11/02 17:37:49;;;;;;;7.05;4.10;;;11.10;89.80;;;;;;4965981;28;20037;-79
2021/11/02 17:40:17;;;;;;;7.10;3.80;;;11.20;90.30;;;;;;4947779;28;20407;-72
2021/11/02 17:42:45;;;;;;;7.60;3.72;;;11.10;90.10;;;;;;4952690;28;20125;-77
2021/11/02 17:45:12;;;;;;;5.32;3.70;;;11.10;90.20;;;;;;4952382;28;20129;-78
2021/11/02 17:47:41;;;;;;;5.63;3.17;;;11.10;90.20;;;;;;4956854;28;20039;-77
2021/11/02 17:50:08;;;;;;;7.20;3.78;;;11.10;90.30;;;;;;4957314;28;20043;-78
2021/11/02 17:52:34;;;;;;;5.82;3.70;;;11.10;90.30;;;;;;4972638;28;20027;-79
2021/11/02 17:55:02;;;;;;;7.07;4.32;;;11.10;90.20;;;;;;4957438;28;20031;-78
2021/11/02 17:57:28;;;;;;;7.03;4.35;;;11.10;90.10;;;;;;4943728;29;21046;-78
2021/11/02 17:59:54;;;;;;;10.27;7.90;;;11.10;90.20;;;;;;4961423;28;20043;-78
2021/11/02 18:02:20;;;;;;;11.10;7.65;;;11.10;90.30;;;;;;4970342;28;20038;-79
2021/11/02 18:04:48;;;;;;;10.52;8.52;;;11.20;90.30;;;;;;4956911;28;20035;-78
2021/11/02 18:07:14;;;;;;;9.13;7.07;;;11.10;90.20;;;;;;4960707;28;20031;-79
2021/11/02 18:09:40;;;;;;;12.82;6.70;;;11.20;90.20;;;;;;4956937;28;20808;-78
2021/11/02 18:12:07;;;;;;;12.20;6.25;;;11.30;90.20;;;;;;4948031;28;20035;-78
2021/11/02 18:14:33;;;;;;;10.60;5.90;;;11.30;90.20;;;;;;4965015;28;20484;-84